This is the latest recevied weather packets stored in our database for station/object KE2HEH. If no packets are shown the sender has not sent any weather packets the latest 10 day(s).
| Time | Temp. | Humidity | Pressure | Rain* | Wind** | Luminosity | Snow |
|---|---|---|---|---|---|---|---|
| 1778266956 | 13.89° C | 72% | 1012.6 hPa | 0 mm | - | 70 W/m² | - |
| 1778266652 | 14.44° C | 73% | 1012.5 hPa | 0 mm | - | 115 W/m² | - |
| 1778266350 | 15.56° C | 66% | 1012.5 hPa | 0 mm | - | 212 W/m² | - |
| 1778266047 | 16.11° C | 54% | 1012.4 hPa | 0 mm | - | 613 W/m² | - |
| 1778265744 | 16.11° C | 50% | 1012.5 hPa | 0 mm | - | 597 W/m² | - |
| 1778265441 | 16.11° C | 52% | 1012.6 hPa | 0 mm | - | 271 W/m² | - |
| 1778265137 | 16.11° C | 51% | 1012.6 hPa | 0 mm | - | 587 W/m² | - |
| 1778264833 | 16.67° C | 49% | 1012.6 hPa | 0 mm | - | 658 W/m² | - |
| 1778264530 | 16.11° C | 47% | 1012.7 hPa | 0 mm | - | 578 W/m² | - |
| 1778264226 | 15.56° C | 50% | 1012.8 hPa | 0 mm | - | 638 W/m² | - |
| 1778263923 | 16.11° C | 51% | 1012.8 hPa | 0 mm | - | 397 W/m² | - |
| 1778263620 | 16.11° C | 49% | 1012.8 hPa | 0 mm | - | 671 W/m² | - |
| 1778263317 | 16.11° C | 50% | 1012.9 hPa | 0 mm | - | 613 W/m² | - |
| 1778263013 | 16.11° C | 50% | 1012.8 hPa | 0 mm | - | 563 W/m² | - |
| 1778262709 | 16.11° C | 52% | 1012.7 hPa | 0 mm | - | 586 W/m² | - |
| 1778262408 | 15.56° C | 52% | 1012.6 hPa | 0 mm | - | 568 W/m² | - |
| 1778262104 | 15.56° C | 55% | 1012.6 hPa | 0 mm | - | 570 W/m² | - |
| 1778261801 | 15.56° C | 54% | 1012.8 hPa | 0 mm | - | 561 W/m² | - |
| 1778261497 | 15.56° C | 54% | 1012.8 hPa | 0 mm | - | 556 W/m² | - |
| 1778261194 | 15.56° C | 50% | 1012.6 hPa | 0 mm | - | 553 W/m² | - |
| 1778260891 | 15.56° C | 50% | 1012.8 hPa | 0 mm | - | 547 W/m² | - |
| 1778260588 | 15.56° C | 51% | 1012.8 hPa | 0 mm | - | 554 W/m² | - |
| 1778260284 | 15.56° C | 49% | 1013 hPa | 0 mm | - | 547 W/m² | - |
| 1778259981 | 15.56° C | 51% | 1013 hPa | 0 mm | - | 573 W/m² | - |
| 1778259679 | 15.56° C | 51% | 1013 hPa | 0 mm | - | 575 W/m² | - |
* Rain latest hour (hover to see other rain measurements)
** Current wind speed in m/s (hover to see current wind gust speed)